EDLW/DTM METAR and TAF weather

Enter ICAO airport designator
Station Type Date Time Source
EDLW METAR 2022/12/08 13:50 UTC NOAA

EDLW 081350Z 22006KT 6000 -RASN BKN006 OVC020 01/M00 Q1006


Station Type Date Time Source
EDLW Decoded METAR 2022/12/08 13:50 UTC NOAA

Dortmund / Wickede, Germany (EDLW) 51-31N 007-37E
Dec 08, 2022 - 08:50 AM EST / 2022.12.08 1350 UTC
Wind: from the SW (220 degrees) at 7 MPH (6 KT):0
Visibility: 3 mile(s):0
Sky conditions: overcast
Weather: light rain, snow
Temperature: 33 F (1 C)
Windchill: 26 F (-3 C):1
Dew Point: 32 F (0 C)
Relative Humidity: 93%
Pressure (altimeter): 29.71 in. Hg (1006 hPa)
ob: EDLW 081350Z 22006KT 6000 -RASN BKN006 OVC020 01/M00 Q1006
cycle: 14

Station Type Date Time Source
EDLW TAF 2022/12/08 12:27 UTC NOAA

TAF EDLW 081100Z 0812/0912 24008KT 9000 BKN008
BECMG 0813/0816 BKN012
BECMG 0816/0819 18004KT BKN015
TEMPO 0821/0910 BKN008 PROB30
TEMPO 0903/0908 0800 FG BKN001

Example: see airport list